New Trenton, Indiana
Current Conditions -  °F | °C
As of 1:15 PM on Monday 24 Nov 2014 (Local Time) from KI67 Reporting Station
Overcast Overcast  
Wind Chill: 36°   Ceiling: 2400
Heat Index: 45°   Visibility: 10mi
Dew Point: 36°   Wind: 21mph
Humidity: 71%   Direction: 240°WSW
Pressure: 29.61"   Gusts: 33mph
Location:  39.31°N, 84.9°W
Report Text: KI67 241815Z AUTO 24018G29KT 10SM OVC024 07/02 A2961 RMK AO1
Loading
Personal Weather Stations






























Interactive Weather Map New forecast layout! Learn more

10-Day Weather Forecast

Advertisements
Track Severe Weather on mobile